sensor_id;sensor_type;location;lat;lon;timestamp;P1;durP1;ratioP1;P2;durP2;ratioP2
59786;SDS011;45672;51.612;5.536;2023-04-15T00:01:58;9.70;;;5.90;;
59786;SDS011;45672;51.612;5.536;2023-04-15T00:04:24;12.82;;;6.75;;
59786;SDS011;45672;51.612;5.536;2023-04-15T00:06:50;11.45;;;6.28;;
59786;SDS011;45672;51.612;5.536;2023-04-15T00:09:17;9.20;;;6.53;;
59786;SDS011;45672;51.612;5.536;2023-04-15T00:11:43;9.15;;;6.30;;
59786;SDS011;45672;51.612;5.536;2023-04-15T00:14:09;11.38;;;6.38;;
59786;SDS011;45672;51.612;5.536;2023-04-15T00:16:34;9.35;;;6.05;;
59786;SDS011;45672;51.612;5.536;2023-04-15T00:19:00;12.55;;;6.68;;
59786;SDS011;45672;51.612;5.536;2023-04-15T00:21:25;11.65;;;6.50;;
59786;SDS011;45672;51.612;5.536;2023-04-15T00:23:52;9.82;;;6.63;;
59786;SDS011;45672;51.612;5.536;2023-04-15T00:26:18;15.40;;;6.72;;
59786;SDS011;45672;51.612;5.536;2023-04-15T00:28:44;9.25;;;6.47;;
59786;SDS011;45672;51.612;5.536;2023-04-15T00:31:10;13.63;;;6.65;;
59786;SDS011;45672;51.612;5.536;2023-04-15T00:33:35;9.00;;;6.20;;
59786;SDS011;45672;51.612;5.536;2023-04-15T00:36:01;14.85;;;7.03;;
59786;SDS011;45672;51.612;5.536;2023-04-15T00:38:27;13.93;;;6.53;;
59786;SDS011;45672;51.612;5.536;2023-04-15T00:40:53;17.90;;;7.20;;
59786;SDS011;45672;51.612;5.536;2023-04-15T00:43:19;10.60;;;7.13;;
59786;SDS011;45672;51.612;5.536;2023-04-15T00:45:44;14.63;;;6.97;;
59786;SDS011;45672;51.612;5.536;2023-04-15T00:48:11;7.75;;;6.38;;
59786;SDS011;45672;51.612;5.536;2023-04-15T00:50:36;10.80;;;6.20;;
59786;SDS011;45672;51.612;5.536;2023-04-15T00:53:02;13.48;;;6.72;;
59786;SDS011;45672;51.612;5.536;2023-04-15T00:55:27;13.50;;;7.35;;
59786;SDS011;45672;51.612;5.536;2023-04-15T00:57:52;16.08;;;7.65;;
59786;SDS011;45672;51.612;5.536;2023-04-15T01:00:19;9.55;;;7.00;;
59786;SDS011;45672;51.612;5.536;2023-04-15T01:02:44;9.27;;;6.57;;
59786;SDS011;45672;51.612;5.536;2023-04-15T01:05:10;11.70;;;6.70;;
59786;SDS011;45672;51.612;5.536;2023-04-15T01:07:35;8.60;;;6.60;;
59786;SDS011;45672;51.612;5.536;2023-04-15T01:10:02;9.80;;;6.93;;
59786;SDS011;45672;51.612;5.536;2023-04-15T01:12:28;14.57;;;7.30;;
59786;SDS011;45672;51.612;5.536;2023-04-15T01:14:56;10.90;;;7.30;;
59786;SDS011;45672;51.612;5.536;2023-04-15T01:17:21;10.32;;;6.55;;
59786;SDS011;45672;51.612;5.536;2023-04-15T01:19:48;9.25;;;6.82;;
59786;SDS011;45672;51.612;5.536;2023-04-15T01:22:14;16.67;;;7.25;;
59786;SDS011;45672;51.612;5.536;2023-04-15T01:24:40;12.00;;;7.38;;
59786;SDS011;45672;51.612;5.536;2023-04-15T01:27:05;15.82;;;7.43;;
59786;SDS011;45672;51.612;5.536;2023-04-15T01:29:31;8.15;;;7.28;;
59786;SDS011;45672;51.612;5.536;2023-04-15T01:31:57;13.32;;;7.50;;
59786;SDS011;45672;51.612;5.536;2023-04-15T01:34:22;10.15;;;7.25;;
59786;SDS011;45672;51.612;5.536;2023-04-15T01:36:48;14.60;;;7.50;;
59786;SDS011;45672;51.612;5.536;2023-04-15T01:39:13;10.13;;;7.28;;
59786;SDS011;45672;51.612;5.536;2023-04-15T01:41:39;12.40;;;7.75;;
59786;SDS011;45672;51.612;5.536;2023-04-15T01:44:06;12.63;;;7.38;;
59786;SDS011;45672;51.612;5.536;2023-04-15T01:46:32;14.50;;;8.13;;
59786;SDS011;45672;51.612;5.536;2023-04-15T01:48:58;10.27;;;7.25;;
59786;SDS011;45672;51.612;5.536;2023-04-15T01:51:23;10.10;;;7.95;;
59786;SDS011;45672;51.612;5.536;2023-04-15T01:53:48;11.13;;;7.40;;
59786;SDS011;45672;51.612;5.536;2023-04-15T01:56:13;11.15;;;8.23;;
59786;SDS011;45672;51.612;5.536;2023-04-15T01:58:39;13.02;;;7.80;;
59786;SDS011;45672;51.612;5.536;2023-04-15T02:01:05;11.10;;;8.32;;
59786;SDS011;45672;51.612;5.536;2023-04-15T02:03:30;9.38;;;8.15;;
59786;SDS011;45672;51.612;5.536;2023-04-15T02:05:56;17.75;;;8.57;;
59786;SDS011;45672;51.612;5.536;2023-04-15T02:08:21;14.00;;;8.23;;
59786;SDS011;45672;51.612;5.536;2023-04-15T02:10:47;10.00;;;7.22;;
59786;SDS011;45672;51.612;5.536;2023-04-15T02:13:12;12.70;;;8.25;;
59786;SDS011;45672;51.612;5.536;2023-04-15T02:15:37;9.77;;;7.80;;
59786;SDS011;45672;51.612;5.536;2023-04-15T02:18:03;11.35;;;7.78;;
59786;SDS011;45672;51.612;5.536;2023-04-15T02:20:28;8.77;;;7.90;;
59786;SDS011;45672;51.612;5.536;2023-04-15T02:22:54;11.43;;;7.43;;
59786;SDS011;45672;51.612;5.536;2023-04-15T02:25:21;12.85;;;8.07;;
59786;SDS011;45672;51.612;5.536;2023-04-15T02:27:46;12.40;;;7.93;;
59786;SDS011;45672;51.612;5.536;2023-04-15T02:30:11;11.63;;;7.65;;
59786;SDS011;45672;51.612;5.536;2023-04-15T02:32:37;8.07;;;5.65;;
59786;SDS011;45672;51.612;5.536;2023-04-15T02:35:04;8.88;;;7.55;;
59786;SDS011;45672;51.612;5.536;2023-04-15T02:37:31;8.25;;;7.35;;
59786;SDS011;45672;51.612;5.536;2023-04-15T02:39:56;10.43;;;7.90;;
59786;SDS011;45672;51.612;5.536;2023-04-15T02:42:21;11.02;;;7.80;;
59786;SDS011;45672;51.612;5.536;2023-04-15T02:44:47;10.07;;;7.93;;
59786;SDS011;45672;51.612;5.536;2023-04-15T02:47:12;12.73;;;8.02;;
59786;SDS011;45672;51.612;5.536;2023-04-15T02:49:38;10.10;;;7.70;;
59786;SDS011;45672;51.612;5.536;2023-04-15T02:52:04;14.38;;;7.97;;
59786;SDS011;45672;51.612;5.536;2023-04-15T02:54:30;9.00;;;7.60;;
59786;SDS011;45672;51.612;5.536;2023-04-15T02:56:57;9.02;;;7.80;;
59786;SDS011;45672;51.612;5.536;2023-04-15T02:59:23;10.55;;;7.60;;
59786;SDS011;45672;51.612;5.536;2023-04-15T03:01:48;13.00;;;7.85;;
59786;SDS011;45672;51.612;5.536;2023-04-15T03:04:13;11.02;;;8.18;;
59786;SDS011;45672;51.612;5.536;2023-04-15T03:06:39;11.50;;;9.02;;
59786;SDS011;45672;51.612;5.536;2023-04-15T03:09:04;11.48;;;8.07;;
59786;SDS011;45672;51.612;5.536;2023-04-15T03:11:30;9.95;;;8.18;;
59786;SDS011;45672;51.612;5.536;2023-04-15T03:13:56;12.00;;;9.07;;
59786;SDS011;45672;51.612;5.536;2023-04-15T03:16:22;10.60;;;8.05;;
59786;SDS011;45672;51.612;5.536;2023-04-15T03:18:48;9.70;;;8.20;;
59786;SDS011;45672;51.612;5.536;2023-04-15T03:21:13;11.50;;;8.55;;
59786;SDS011;45672;51.612;5.536;2023-04-15T03:23:39;13.02;;;8.70;;
59786;SDS011;45672;51.612;5.536;2023-04-15T03:26:04;12.30;;;8.50;;
59786;SDS011;45672;51.612;5.536;2023-04-15T03:28:30;12.98;;;8.63;;
59786;SDS011;45672;51.612;5.536;2023-04-15T03:30:56;9.93;;;8.50;;
59786;SDS011;45672;51.612;5.536;2023-04-15T03:33:22;11.05;;;8.68;;
59786;SDS011;45672;51.612;5.536;2023-04-15T03:35:47;14.55;;;9.13;;
59786;SDS011;45672;51.612;5.536;2023-04-15T03:38:14;12.98;;;8.65;;
59786;SDS011;45672;51.612;5.536;2023-04-15T03:40:40;12.20;;;8.55;;
59786;SDS011;45672;51.612;5.536;2023-04-15T03:43:05;11.93;;;8.38;;
59786;SDS011;45672;51.612;5.536;2023-04-15T03:45:31;11.60;;;8.52;;
59786;SDS011;45672;51.612;5.536;2023-04-15T03:47:56;13.50;;;9.02;;
59786;SDS011;45672;51.612;5.536;2023-04-15T03:50:21;13.30;;;9.52;;
59786;SDS011;45672;51.612;5.536;2023-04-15T03:52:47;15.05;;;8.88;;
59786;SDS011;45672;51.612;5.536;2023-04-15T03:55:12;12.85;;;9.05;;
59786;SDS011;45672;51.612;5.536;2023-04-15T03:57:38;14.88;;;8.88;;
59786;SDS011;45672;51.612;5.536;2023-04-15T04:00:07;12.15;;;8.77;;
59786;SDS011;45672;51.612;5.536;2023-04-15T04:02:34;13.50;;;8.98;;
59786;SDS011;45672;51.612;5.536;2023-04-15T04:04:59;11.48;;;9.10;;
59786;SDS011;45672;51.612;5.536;2023-04-15T04:07:24;12.90;;;8.98;;
59786;SDS011;45672;51.612;5.536;2023-04-15T04:09:50;14.10;;;9.27;;
59786;SDS011;45672;51.612;5.536;2023-04-15T04:12:15;13.43;;;9.20;;
59786;SDS011;45672;51.612;5.536;2023-04-15T04:14:41;10.65;;;9.15;;
59786;SDS011;45672;51.612;5.536;2023-04-15T04:17:06;10.80;;;8.95;;
59786;SDS011;45672;51.612;5.536;2023-04-15T04:19:32;12.23;;;9.10;;
59786;SDS011;45672;51.612;5.536;2023-04-15T04:21:57;10.13;;;9.05;;
59786;SDS011;45672;51.612;5.536;2023-04-15T04:24:22;11.27;;;8.18;;
59786;SDS011;45672;51.612;5.536;2023-04-15T04:26:48;12.63;;;9.32;;
59786;SDS011;45672;51.612;5.536;2023-04-15T04:29:13;11.75;;;8.70;;
59786;SDS011;45672;51.612;5.536;2023-04-15T04:31:38;10.98;;;9.10;;
59786;SDS011;45672;51.612;5.536;2023-04-15T04:34:04;11.93;;;9.57;;
59786;SDS011;45672;51.612;5.536;2023-04-15T04:36:30;10.93;;;9.32;;
59786;SDS011;45672;51.612;5.536;2023-04-15T04:38:55;12.18;;;9.05;;
59786;SDS011;45672;51.612;5.536;2023-04-15T04:41:21;14.38;;;9.75;;
59786;SDS011;45672;51.612;5.536;2023-04-15T04:43:46;16.77;;;9.48;;
59786;SDS011;45672;51.612;5.536;2023-04-15T04:46:11;12.60;;;9.40;;
59786;SDS011;45672;51.612;5.536;2023-04-15T04:48:37;13.00;;;8.88;;
59786;SDS011;45672;51.612;5.536;2023-04-15T04:51:03;14.60;;;10.13;;
59786;SDS011;45672;51.612;5.536;2023-04-15T04:53:28;13.73;;;9.25;;
59786;SDS011;45672;51.612;5.536;2023-04-15T04:55:54;11.55;;;9.65;;
59786;SDS011;45672;51.612;5.536;2023-04-15T04:58:19;14.73;;;9.77;;
59786;SDS011;45672;51.612;5.536;2023-04-15T05:00:44;10.95;;;9.50;;
59786;SDS011;45672;51.612;5.536;2023-04-15T05:03:10;12.23;;;9.95;;
59786;SDS011;45672;51.612;5.536;2023-04-15T05:05:35;13.32;;;9.55;;
59786;SDS011;45672;51.612;5.536;2023-04-15T05:08:03;10.30;;;9.15;;
59786;SDS011;45672;51.612;5.536;2023-04-15T05:10:30;11.07;;;9.48;;
59786;SDS011;45672;51.612;5.536;2023-04-15T05:12:56;12.02;;;8.95;;
59786;SDS011;45672;51.612;5.536;2023-04-15T05:15:21;12.13;;;9.32;;
59786;SDS011;45672;51.612;5.536;2023-04-15T05:17:47;17.05;;;9.77;;
59786;SDS011;45672;51.612;5.536;2023-04-15T05:20:12;12.63;;;9.32;;
59786;SDS011;45672;51.612;5.536;2023-04-15T05:22:37;11.88;;;9.70;;
59786;SDS011;45672;51.612;5.536;2023-04-15T05:25:03;11.93;;;8.82;;
59786;SDS011;45672;51.612;5.536;2023-04-15T05:27:28;10.45;;;9.20;;
59786;SDS011;45672;51.612;5.536;2023-04-15T05:29:54;16.38;;;9.77;;
59786;SDS011;45672;51.612;5.536;2023-04-15T05:32:20;12.18;;;9.48;;
59786;SDS011;45672;51.612;5.536;2023-04-15T05:34:45;11.38;;;9.45;;
59786;SDS011;45672;51.612;5.536;2023-04-15T05:37:11;11.35;;;9.20;;
59786;SDS011;45672;51.612;5.536;2023-04-15T05:39:36;13.98;;;10.05;;
59786;SDS011;45672;51.612;5.536;2023-04-15T05:42:02;13.38;;;9.50;;
59786;SDS011;45672;51.612;5.536;2023-04-15T05:44:27;19.55;;;9.23;;
59786;SDS011;45672;51.612;5.536;2023-04-15T05:46:52;10.65;;;9.13;;
59786;SDS011;45672;51.612;5.536;2023-04-15T05:49:18;11.70;;;9.57;;
59786;SDS011;45672;51.612;5.536;2023-04-15T05:51:43;10.48;;;9.38;;
59786;SDS011;45672;51.612;5.536;2023-04-15T05:54:09;13.82;;;9.88;;
59786;SDS011;45672;51.612;5.536;2023-04-15T05:56:34;16.48;;;9.52;;
59786;SDS011;45672;51.612;5.536;2023-04-15T05:59:00;14.65;;;9.55;;
59786;SDS011;45672;51.612;5.536;2023-04-15T06:01:25;11.45;;;9.65;;
59786;SDS011;45672;51.612;5.536;2023-04-15T06:03:51;12.93;;;9.73;;
59786;SDS011;45672;51.612;5.536;2023-04-15T06:06:16;12.68;;;9.80;;
59786;SDS011;45672;51.612;5.536;2023-04-15T06:08:42;10.85;;;9.32;;
59786;SDS011;45672;51.612;5.536;2023-04-15T06:11:07;14.65;;;10.38;;
59786;SDS011;45672;51.612;5.536;2023-04-15T06:13:33;13.65;;;9.57;;
59786;SDS011;45672;51.612;5.536;2023-04-15T06:15:58;12.35;;;9.85;;
59786;SDS011;45672;51.612;5.536;2023-04-15T06:18:24;13.40;;;10.68;;
59786;SDS011;45672;51.612;5.536;2023-04-15T06:20:49;15.43;;;10.20;;
59786;SDS011;45672;51.612;5.536;2023-04-15T06:23:15;13.00;;;9.70;;
59786;SDS011;45672;51.612;5.536;2023-04-15T06:25:40;10.68;;;8.27;;
59786;SDS011;45672;51.612;5.536;2023-04-15T06:28:06;11.20;;;8.65;;
59786;SDS011;45672;51.612;5.536;2023-04-15T06:30:31;11.77;;;9.77;;
59786;SDS011;45672;51.612;5.536;2023-04-15T06:32:56;15.82;;;10.18;;
59786;SDS011;45672;51.612;5.536;2023-04-15T06:35:22;11.23;;;9.55;;
59786;SDS011;45672;51.612;5.536;2023-04-15T06:37:47;12.55;;;10.25;;
59786;SDS011;45672;51.612;5.536;2023-04-15T06:40:12;11.80;;;9.63;;
59786;SDS011;45672;51.612;5.536;2023-04-15T06:42:38;12.68;;;9.05;;
59786;SDS011;45672;51.612;5.536;2023-04-15T06:45:03;15.77;;;9.65;;
59786;SDS011;45672;51.612;5.536;2023-04-15T06:47:29;11.05;;;9.00;;
59786;SDS011;45672;51.612;5.536;2023-04-15T06:49:54;11.25;;;9.20;;
59786;SDS011;45672;51.612;5.536;2023-04-15T06:52:20;9.95;;;8.65;;
59786;SDS011;45672;51.612;5.536;2023-04-15T06:54:45;9.82;;;8.77;;
59786;SDS011;45672;51.612;5.536;2023-04-15T06:57:10;9.82;;;8.82;;
59786;SDS011;45672;51.612;5.536;2023-04-15T06:59:36;9.77;;;8.85;;
59786;SDS011;45672;51.612;5.536;2023-04-15T07:02:01;13.23;;;9.10;;
59786;SDS011;45672;51.612;5.536;2023-04-15T07:04:27;10.13;;;8.98;;
59786;SDS011;45672;51.612;5.536;2023-04-15T07:06:52;10.77;;;9.05;;
59786;SDS011;45672;51.612;5.536;2023-04-15T07:09:20;11.95;;;8.85;;
59786;SDS011;45672;51.612;5.536;2023-04-15T07:11:48;13.90;;;8.60;;
59786;SDS011;45672;51.612;5.536;2023-04-15T07:14:14;9.70;;;8.70;;
59786;SDS011;45672;51.612;5.536;2023-04-15T07:16:39;9.48;;;8.48;;
59786;SDS011;45672;51.612;5.536;2023-04-15T07:19:04;12.07;;;8.40;;
59786;SDS011;45672;51.612;5.536;2023-04-15T07:21:30;16.35;;;8.48;;
59786;SDS011;45672;51.612;5.536;2023-04-15T07:23:55;9.00;;;8.10;;
59786;SDS011;45672;51.612;5.536;2023-04-15T07:26:20;9.25;;;8.35;;
59786;SDS011;45672;51.612;5.536;2023-04-15T07:28:45;9.00;;;7.95;;
59786;SDS011;45672;51.612;5.536;2023-04-15T07:31:11;8.63;;;7.53;;
59786;SDS011;45672;51.612;5.536;2023-04-15T07:33:37;10.38;;;7.90;;
59786;SDS011;45672;51.612;5.536;2023-04-15T07:36:02;10.90;;;7.13;;
59786;SDS011;45672;51.612;5.536;2023-04-15T07:38:27;8.20;;;7.40;;
59786;SDS011;45672;51.612;5.536;2023-04-15T07:40:53;9.55;;;6.38;;
59786;SDS011;45672;51.612;5.536;2023-04-15T07:43:19;7.72;;;7.03;;
59786;SDS011;45672;51.612;5.536;2023-04-15T07:45:45;7.72;;;6.93;;
59786;SDS011;45672;51.612;5.536;2023-04-15T07:48:10;8.02;;;7.25;;
59786;SDS011;45672;51.612;5.536;2023-04-15T07:50:35;7.88;;;7.10;;
59786;SDS011;45672;51.612;5.536;2023-04-15T07:53:01;7.65;;;6.57;;
59786;SDS011;45672;51.612;5.536;2023-04-15T07:55:26;7.43;;;6.72;;
59786;SDS011;45672;51.612;5.536;2023-04-15T07:57:51;6.90;;;6.30;;
59786;SDS011;45672;51.612;5.536;2023-04-15T08:00:17;7.32;;;6.57;;
59786;SDS011;45672;51.612;5.536;2023-04-15T08:02:42;6.80;;;6.15;;
59786;SDS011;45672;51.612;5.536;2023-04-15T08:05:08;6.90;;;6.20;;
59786;SDS011;45672;51.612;5.536;2023-04-15T08:07:35;7.07;;;6.18;;
59786;SDS011;45672;51.612;5.536;2023-04-15T08:10:01;7.15;;;5.50;;
59786;SDS011;45672;51.612;5.536;2023-04-15T08:12:27;4.13;;;3.72;;
59786;SDS011;45672;51.612;5.536;2023-04-15T08:14:53;4.57;;;3.63;;
59786;SDS011;45672;51.612;5.536;2023-04-15T08:17:19;4.32;;;4.03;;
59786;SDS011;45672;51.612;5.536;2023-04-15T08:19:44;4.30;;;3.97;;
59786;SDS011;45672;51.612;5.536;2023-04-15T08:22:10;5.63;;;4.20;;
59786;SDS011;45672;51.612;5.536;2023-04-15T08:24:36;4.20;;;3.90;;
59786;SDS011;45672;51.612;5.536;2023-04-15T08:27:02;4.65;;;4.20;;
59786;SDS011;45672;51.612;5.536;2023-04-15T08:29:29;4.35;;;3.95;;
59786;SDS011;45672;51.612;5.536;2023-04-15T08:31:55;5.90;;;4.10;;
59786;SDS011;45672;51.612;5.536;2023-04-15T08:34:20;4.45;;;4.10;;
59786;SDS011;45672;51.612;5.536;2023-04-15T08:36:45;4.65;;;3.80;;
59786;SDS011;45672;51.612;5.536;2023-04-15T08:39:10;3.75;;;3.28;;
59786;SDS011;45672;51.612;5.536;2023-04-15T08:41:39;3.75;;;3.35;;
59786;SDS011;45672;51.612;5.536;2023-04-15T08:44:13;4.13;;;3.70;;
59786;SDS011;45672;51.612;5.536;2023-04-15T08:46:39;3.80;;;3.50;;
59786;SDS011;45672;51.612;5.536;2023-04-15T08:49:08;3.92;;;3.63;;
59786;SDS011;45672;51.612;5.536;2023-04-15T08:51:36;3.42;;;3.13;;
59786;SDS011;45672;51.612;5.536;2023-04-15T08:54:03;4.65;;;4.25;;
59786;SDS011;45672;51.612;5.536;2023-04-15T08:56:29;4.30;;;3.90;;
59786;SDS011;45672;51.612;5.536;2023-04-15T08:58:56;4.32;;;3.92;;
59786;SDS011;45672;51.612;5.536;2023-04-15T09:01:23;5.68;;;4.30;;
59786;SDS011;45672;51.612;5.536;2023-04-15T09:03:49;5.53;;;4.97;;
59786;SDS011;45672;51.612;5.536;2023-04-15T09:06:15;4.13;;;3.83;;
59786;SDS011;45672;51.612;5.536;2023-04-15T09:08:41;4.80;;;4.32;;
59786;SDS011;45672;51.612;5.536;2023-04-15T09:11:06;4.55;;;4.03;;
59786;SDS011;45672;51.612;5.536;2023-04-15T09:13:32;6.75;;;3.92;;
59786;SDS011;45672;51.612;5.536;2023-04-15T09:15:57;6.05;;;3.72;;
59786;SDS011;45672;51.612;5.536;2023-04-15T09:18:29;4.50;;;3.75;;
59786;SDS011;45672;51.612;5.536;2023-04-15T09:20:55;4.70;;;4.30;;
59786;SDS011;45672;51.612;5.536;2023-04-15T09:23:29;4.93;;;4.50;;
59786;SDS011;45672;51.612;5.536;2023-04-15T09:25:55;6.25;;;4.10;;
59786;SDS011;45672;51.612;5.536;2023-04-15T09:28:25;4.75;;;4.20;;
59786;SDS011;45672;51.612;5.536;2023-04-15T09:30:51;5.60;;;4.15;;
59786;SDS011;45672;51.612;5.536;2023-04-15T09:33:20;4.72;;;4.20;;
59786;SDS011;45672;51.612;5.536;2023-04-15T09:35:59;4.53;;;4.13;;
59786;SDS011;45672;51.612;5.536;2023-04-15T09:38:26;4.22;;;2.92;;
59786;SDS011;45672;51.612;5.536;2023-04-15T09:40:52;3.40;;;3.10;;
59786;SDS011;45672;51.612;5.536;2023-04-15T09:43:17;3.38;;;3.08;;
59786;SDS011;45672;51.612;5.536;2023-04-15T09:45:47;3.85;;;3.20;;
59786;SDS011;45672;51.612;5.536;2023-04-15T09:48:18;3.45;;;3.00;;
59786;SDS011;45672;51.612;5.536;2023-04-15T09:50:49;3.75;;;3.35;;
59786;SDS011;45672;51.612;5.536;2023-04-15T09:53:18;4.45;;;3.30;;
59786;SDS011;45672;51.612;5.536;2023-04-15T09:55:55;3.60;;;3.30;;
59786;SDS011;45672;51.612;5.536;2023-04-15T09:58:22;2.90;;;2.67;;
59786;SDS011;45672;51.612;5.536;2023-04-15T10:00:52;3.25;;;2.95;;
59786;SDS011;45672;51.612;5.536;2023-04-15T10:03:19;9.52;;;3.10;;
59786;SDS011;45672;51.612;5.536;2023-04-15T10:05:47;6.10;;;3.20;;
59786;SDS011;45672;51.612;5.536;2023-04-15T10:08:14;4.63;;;3.10;;
59786;SDS011;45672;51.612;5.536;2023-04-15T10:10:41;3.20;;;2.90;;
59786;SDS011;45672;51.612;5.536;2023-04-15T10:13:07;4.68;;;3.40;;
59786;SDS011;45672;51.612;5.536;2023-04-15T10:15:33;2.90;;;2.70;;
59786;SDS011;45672;51.612;5.536;2023-04-15T10:17:59;3.47;;;2.65;;
59786;SDS011;45672;51.612;5.536;2023-04-15T10:20:25;2.50;;;1.50;;
59786;SDS011;45672;51.612;5.536;2023-04-15T10:22:53;2.53;;;2.30;;
59786;SDS011;45672;51.612;5.536;2023-04-15T10:25:19;2.67;;;2.47;;
59786;SDS011;45672;51.612;5.536;2023-04-15T10:27:45;3.97;;;2.50;;
59786;SDS011;45672;51.612;5.536;2023-04-15T10:30:12;2.80;;;2.53;;
59786;SDS011;45672;51.612;5.536;2023-04-15T10:32:39;2.10;;;1.90;;
59786;SDS011;45672;51.612;5.536;2023-04-15T10:35:05;2.38;;;2.00;;
59786;SDS011;45672;51.612;5.536;2023-04-15T10:37:34;2.03;;;1.80;;
59786;SDS011;45672;51.612;5.536;2023-04-15T10:40:12;3.72;;;1.92;;
59786;SDS011;45672;51.612;5.536;2023-04-15T10:42:51;2.13;;;2.00;;
59786;SDS011;45672;51.612;5.536;2023-04-15T10:45:17;2.50;;;2.30;;
59786;SDS011;45672;51.612;5.536;2023-04-15T10:47:43;2.92;;;2.70;;
59786;SDS011;45672;51.612;5.536;2023-04-15T10:50:08;3.03;;;2.40;;
59786;SDS011;45672;51.612;5.536;2023-04-15T10:52:34;3.13;;;2.50;;
59786;SDS011;45672;51.612;5.536;2023-04-15T10:55:14;3.30;;;3.00;;
59786;SDS011;45672;51.612;5.536;2023-04-15T10:57:43;3.10;;;2.90;;
59786;SDS011;45672;51.612;5.536;2023-04-15T11:00:10;3.55;;;3.20;;
59786;SDS011;45672;51.612;5.536;2023-04-15T11:05:22;4.78;;;3.42;;
59786;SDS011;45672;51.612;5.536;2023-04-15T11:08:08;7.55;;;3.40;;
59786;SDS011;45672;51.612;5.536;2023-04-15T11:13:01;3.90;;;3.50;;
59786;SDS011;45672;51.612;5.536;2023-04-15T11:17:54;3.78;;;3.42;;
59786;SDS011;45672;51.612;5.536;2023-04-15T11:20:21;3.35;;;3.05;;
59786;SDS011;45672;51.612;5.536;2023-04-15T11:22:47;3.42;;;2.92;;
59786;SDS011;45672;51.612;5.536;2023-04-15T11:25:24;3.78;;;2.90;;
59786;SDS011;45672;51.612;5.536;2023-04-15T11:27:51;2.90;;;2.70;;
59786;SDS011;45672;51.612;5.536;2023-04-15T11:30:18;2.40;;;2.13;;
59786;SDS011;45672;51.612;5.536;2023-04-15T11:32:46;3.13;;;2.75;;
59786;SDS011;45672;51.612;5.536;2023-04-15T11:35:11;3.63;;;2.50;;
59786;SDS011;45672;51.612;5.536;2023-04-15T11:37:36;2.53;;;2.00;;
59786;SDS011;45672;51.612;5.536;2023-04-15T11:40:02;4.40;;;1.85;;
59786;SDS011;45672;51.612;5.536;2023-04-15T11:42:27;3.53;;;2.25;;
59786;SDS011;45672;51.612;5.536;2023-04-15T11:45:09;2.40;;;2.20;;
59786;SDS011;45672;51.612;5.536;2023-04-15T11:47:38;2.55;;;2.35;;
59786;SDS011;45672;51.612;5.536;2023-04-15T11:52:40;2.20;;;2.10;;
59786;SDS011;45672;51.612;5.536;2023-04-15T11:55:16;4.93;;;2.20;;
59786;SDS011;45672;51.612;5.536;2023-04-15T11:57:41;2.55;;;2.35;;
59786;SDS011;45672;51.612;5.536;2023-04-15T12:00:07;2.75;;;2.55;;
59786;SDS011;45672;51.612;5.536;2023-04-15T12:02:35;2.90;;;2.22;;
59786;SDS011;45672;51.612;5.536;2023-04-15T12:05:01;3.20;;;2.90;;
59786;SDS011;45672;51.612;5.536;2023-04-15T12:07:29;3.13;;;2.92;;
59786;SDS011;45672;51.612;5.536;2023-04-15T12:09:54;3.22;;;3.00;;
59786;SDS011;45672;51.612;5.536;2023-04-15T12:12:21;9.77;;;2.50;;
59786;SDS011;45672;51.612;5.536;2023-04-15T12:14:46;3.75;;;2.88;;
59786;SDS011;45672;51.612;5.536;2023-04-15T12:17:11;2.97;;;2.67;;
59786;SDS011;45672;51.612;5.536;2023-04-15T12:19:38;2.58;;;2.38;;
59786;SDS011;45672;51.612;5.536;2023-04-15T12:22:08;4.88;;;2.70;;
59786;SDS011;45672;51.612;5.536;2023-04-15T12:24:35;3.33;;;3.00;;
59786;SDS011;45672;51.612;5.536;2023-04-15T12:27:10;3.35;;;3.05;;
59786;SDS011;45672;51.612;5.536;2023-04-15T12:29:37;3.17;;;2.92;;
59786;SDS011;45672;51.612;5.536;2023-04-15T12:32:04;3.20;;;2.90;;
59786;SDS011;45672;51.612;5.536;2023-04-15T12:34:35;2.97;;;2.67;;
59786;SDS011;45672;51.612;5.536;2023-04-15T12:37:02;4.47;;;2.90;;
59786;SDS011;45672;51.612;5.536;2023-04-15T12:39:30;2.92;;;2.60;;
59786;SDS011;45672;51.612;5.536;2023-04-15T12:41:56;4.63;;;3.00;;
59786;SDS011;45672;51.612;5.536;2023-04-15T12:44:23;3.03;;;2.75;;
59786;SDS011;45672;51.612;5.536;2023-04-15T12:46:48;3.30;;;3.00;;
59786;SDS011;45672;51.612;5.536;2023-04-15T12:49:14;3.08;;;2.78;;
59786;SDS011;45672;51.612;5.536;2023-04-15T12:51:40;2.50;;;2.22;;
59786;SDS011;45672;51.612;5.536;2023-04-15T12:54:06;3.67;;;3.45;;
59786;SDS011;45672;51.612;5.536;2023-04-15T12:56:32;3.35;;;3.15;;
59786;SDS011;45672;51.612;5.536;2023-04-15T12:58:57;4.70;;;2.80;;
59786;SDS011;45672;51.612;5.536;2023-04-15T13:01:22;3.00;;;2.58;;
59786;SDS011;45672;51.612;5.536;2023-04-15T13:03:48;2.75;;;2.50;;
59786;SDS011;45672;51.612;5.536;2023-04-15T13:06:14;2.70;;;2.50;;
59786;SDS011;45672;51.612;5.536;2023-04-15T13:08:40;2.60;;;2.40;;
59786;SDS011;45672;51.612;5.536;2023-04-15T13:11:06;2.90;;;2.70;;
59786;SDS011;45672;51.612;5.536;2023-04-15T13:13:31;2.25;;;2.05;;
59786;SDS011;45672;51.612;5.536;2023-04-15T13:15:57;2.60;;;2.45;;
59786;SDS011;45672;51.612;5.536;2023-04-15T13:18:23;3.55;;;2.22;;
59786;SDS011;45672;51.612;5.536;2023-04-15T13:20:48;6.97;;;2.42;;
59786;SDS011;45672;51.612;5.536;2023-04-15T13:23:14;2.88;;;2.30;;
59786;SDS011;45672;51.612;5.536;2023-04-15T13:25:40;3.53;;;2.20;;
59786;SDS011;45672;51.612;5.536;2023-04-15T13:28:05;4.03;;;2.33;;
59786;SDS011;45672;51.612;5.536;2023-04-15T13:30:30;2.30;;;2.10;;
59786;SDS011;45672;51.612;5.536;2023-04-15T13:32:56;2.65;;;2.30;;
59786;SDS011;45672;51.612;5.536;2023-04-15T13:35:21;3.28;;;2.30;;
59786;SDS011;45672;51.612;5.536;2023-04-15T13:37:47;2.47;;;2.25;;
59786;SDS011;45672;51.612;5.536;2023-04-15T13:40:12;2.35;;;2.15;;
59786;SDS011;45672;51.612;5.536;2023-04-15T13:42:37;2.97;;;1.90;;
59786;SDS011;45672;51.612;5.536;2023-04-15T13:45:03;4.25;;;2.17;;
59786;SDS011;45672;51.612;5.536;2023-04-15T13:47:28;2.50;;;2.10;;
59786;SDS011;45672;51.612;5.536;2023-04-15T13:49:54;2.30;;;2.10;;
59786;SDS011;45672;51.612;5.536;2023-04-15T13:52:20;2.65;;;2.30;;
59786;SDS011;45672;51.612;5.536;2023-04-15T13:54:48;2.05;;;1.85;;
59786;SDS011;45672;51.612;5.536;2023-04-15T13:57:14;2.00;;;1.90;;
59786;SDS011;45672;51.612;5.536;2023-04-15T13:59:39;2.30;;;2.00;;
59786;SDS011;45672;51.612;5.536;2023-04-15T14:02:05;3.88;;;2.10;;
59786;SDS011;45672;51.612;5.536;2023-04-15T14:04:31;5.78;;;2.20;;
59786;SDS011;45672;51.612;5.536;2023-04-15T14:06:57;5.25;;;2.10;;
59786;SDS011;45672;51.612;5.536;2023-04-15T14:09:22;1.95;;;1.80;;
59786;SDS011;45672;51.612;5.536;2023-04-15T14:11:51;2.40;;;1.65;;
59786;SDS011;45672;51.612;5.536;2023-04-15T14:14:16;2.92;;;1.90;;
59786;SDS011;45672;51.612;5.536;2023-04-15T14:16:41;9.43;;;1.90;;
59786;SDS011;45672;51.612;5.536;2023-04-15T14:19:07;4.13;;;1.85;;
59786;SDS011;45672;51.612;5.536;2023-04-15T14:21:32;2.60;;;1.90;;
59786;SDS011;45672;51.612;5.536;2023-04-15T14:23:58;3.20;;;1.83;;
59786;SDS011;45672;51.612;5.536;2023-04-15T14:26:23;2.42;;;1.80;;
59786;SDS011;45672;51.612;5.536;2023-04-15T14:28:49;7.32;;;2.20;;
59786;SDS011;45672;51.612;5.536;2023-04-15T14:31:14;2.15;;;1.50;;
59786;SDS011;45672;51.612;5.536;2023-04-15T14:33:40;3.03;;;1.77;;
59786;SDS011;45672;51.612;5.536;2023-04-15T14:36:05;3.53;;;1.80;;
59786;SDS011;45672;51.612;5.536;2023-04-15T14:38:34;2.42;;;1.50;;
59786;SDS011;45672;51.612;5.536;2023-04-15T14:41:04;4.55;;;1.77;;
59786;SDS011;45672;51.612;5.536;2023-04-15T14:43:30;1.98;;;1.77;;
59786;SDS011;45672;51.612;5.536;2023-04-15T14:45:55;4.93;;;2.03;;